sensor_id;sensor_type;location;lat;lon;timestamp;P1;durP1;ratioP1;P2;durP2;ratioP2
5612;SDS011;63463;53.586;9.928;2022-11-20T00:02:22;8.70;;;7.87;;
5612;SDS011;63463;53.586;9.928;2022-11-20T00:04:48;10.50;;;6.80;;
5612;SDS011;63463;53.586;9.928;2022-11-20T00:07:14;7.37;;;6.80;;
5612;SDS011;63463;53.586;9.928;2022-11-20T00:09:40;7.17;;;6.67;;
5612;SDS011;63463;53.586;9.928;2022-11-20T00:12:06;7.80;;;7.20;;
5612;SDS011;63463;53.586;9.928;2022-11-20T00:14:32;7.97;;;7.13;;
5612;SDS011;63463;53.586;9.928;2022-11-20T00:16:58;7.60;;;7.00;;
5612;SDS011;63463;53.586;9.928;2022-11-20T00:19:24;11.43;;;7.50;;
5612;SDS011;63463;53.586;9.928;2022-11-20T00:21:50;8.93;;;7.60;;
5612;SDS011;63463;53.586;9.928;2022-11-20T00:24:18;7.63;;;7.03;;
5612;SDS011;63463;53.586;9.928;2022-11-20T00:26:44;9.60;;;7.10;;
5612;SDS011;63463;53.586;9.928;2022-11-20T00:29:10;7.57;;;6.90;;
5612;SDS011;63463;53.586;9.928;2022-11-20T00:31:36;9.00;;;8.10;;
5612;SDS011;63463;53.586;9.928;2022-11-20T00:34:02;7.73;;;7.27;;
5612;SDS011;63463;53.586;9.928;2022-11-20T00:36:29;7.77;;;7.13;;
5612;SDS011;63463;53.586;9.928;2022-11-20T00:38:57;8.50;;;7.17;;
5612;SDS011;63463;53.586;9.928;2022-11-20T00:41:24;7.70;;;7.07;;
5612;SDS011;63463;53.586;9.928;2022-11-20T00:43:54;7.40;;;6.90;;
5612;SDS011;63463;53.586;9.928;2022-11-20T00:46:21;7.57;;;6.97;;
5612;SDS011;63463;53.586;9.928;2022-11-20T00:48:47;7.53;;;6.87;;
5612;SDS011;63463;53.586;9.928;2022-11-20T00:51:17;8.37;;;7.30;;
5612;SDS011;63463;53.586;9.928;2022-11-20T00:53:44;8.03;;;7.33;;
5612;SDS011;63463;53.586;9.928;2022-11-20T00:56:11;7.20;;;6.70;;
5612;SDS011;63463;53.586;9.928;2022-11-20T00:58:38;7.10;;;6.60;;
5612;SDS011;63463;53.586;9.928;2022-11-20T01:01:14;7.30;;;6.70;;
5612;SDS011;63463;53.586;9.928;2022-11-20T01:03:41;8.03;;;7.43;;
5612;SDS011;63463;53.586;9.928;2022-11-20T01:08:37;8.80;;;7.90;;
5612;SDS011;63463;53.586;9.928;2022-11-20T01:11:11;7.87;;;7.33;;
5612;SDS011;63463;53.586;9.928;2022-11-20T01:13:37;7.77;;;7.17;;
5612;SDS011;63463;53.586;9.928;2022-11-20T01:18:29;8.20;;;7.60;;
5612;SDS011;63463;53.586;9.928;2022-11-20T01:20:55;7.17;;;6.70;;
5612;SDS011;63463;53.586;9.928;2022-11-20T01:23:21;7.50;;;6.90;;
5612;SDS011;63463;53.586;9.928;2022-11-20T01:25:47;7.97;;;7.03;;
5612;SDS011;63463;53.586;9.928;2022-11-20T01:28:13;10.37;;;8.07;;
5612;SDS011;63463;53.586;9.928;2022-11-20T01:30:39;8.83;;;7.70;;
5612;SDS011;63463;53.586;9.928;2022-11-20T01:33:05;12.13;;;7.97;;
5612;SDS011;63463;53.586;9.928;2022-11-20T01:35:31;7.70;;;7.10;;
5612;SDS011;63463;53.586;9.928;2022-11-20T01:37:57;10.80;;;8.17;;
5612;SDS011;63463;53.586;9.928;2022-11-20T01:40:23;7.93;;;7.33;;
5612;SDS011;63463;53.586;9.928;2022-11-20T01:42:51;8.33;;;7.67;;
5612;SDS011;63463;53.586;9.928;2022-11-20T01:48:20;8.37;;;7.50;;
5612;SDS011;63463;53.586;9.928;2022-11-20T01:50:48;8.97;;;7.70;;
5612;SDS011;63463;53.586;9.928;2022-11-20T01:53:15;7.80;;;6.97;;
5612;SDS011;63463;53.586;9.928;2022-11-20T01:55:48;8.03;;;7.20;;
5612;SDS011;63463;53.586;9.928;2022-11-20T01:58:15;11.00;;;7.60;;
5612;SDS011;63463;53.586;9.928;2022-11-20T02:00:42;7.27;;;6.67;;
5612;SDS011;63463;53.586;9.928;2022-11-20T02:03:10;7.70;;;7.10;;
5612;SDS011;63463;53.586;9.928;2022-11-20T02:05:39;7.17;;;6.70;;
5612;SDS011;63463;53.586;9.928;2022-11-20T02:08:07;7.70;;;7.20;;
5612;SDS011;63463;53.586;9.928;2022-11-20T02:10:33;10.00;;;7.43;;
5612;SDS011;63463;53.586;9.928;2022-11-20T02:13:00;7.80;;;7.20;;
5612;SDS011;63463;53.586;9.928;2022-11-20T02:15:44;7.73;;;7.23;;
5612;SDS011;63463;53.586;9.928;2022-11-20T02:18:11;7.77;;;7.27;;
5612;SDS011;63463;53.586;9.928;2022-11-20T02:20:38;11.73;;;7.80;;
5612;SDS011;63463;53.586;9.928;2022-11-20T02:23:08;7.90;;;7.30;;
5612;SDS011;63463;53.586;9.928;2022-11-20T02:25:37;7.80;;;7.20;;
5612;SDS011;63463;53.586;9.928;2022-11-20T02:28:04;8.03;;;7.33;;
5612;SDS011;63463;53.586;9.928;2022-11-20T02:30:30;11.30;;;7.10;;
5612;SDS011;63463;53.586;9.928;2022-11-20T02:32:57;8.77;;;7.90;;
5612;SDS011;63463;53.586;9.928;2022-11-20T02:37:54;8.00;;;7.50;;
5612;SDS011;63463;53.586;9.928;2022-11-20T02:40:20;8.03;;;7.47;;
5612;SDS011;63463;53.586;9.928;2022-11-20T02:42:46;7.90;;;7.20;;
5612;SDS011;63463;53.586;9.928;2022-11-20T02:45:13;11.43;;;7.80;;
5612;SDS011;63463;53.586;9.928;2022-11-20T02:47:39;9.20;;;8.27;;
5612;SDS011;63463;53.586;9.928;2022-11-20T02:50:05;7.27;;;6.77;;
5612;SDS011;63463;53.586;9.928;2022-11-20T02:52:31;8.53;;;7.87;;
5612;SDS011;63463;53.586;9.928;2022-11-20T02:54:57;8.53;;;7.80;;
5612;SDS011;63463;53.586;9.928;2022-11-20T02:57:23;9.80;;;7.00;;
5612;SDS011;63463;53.586;9.928;2022-11-20T02:59:49;8.03;;;7.43;;
5612;SDS011;63463;53.586;9.928;2022-11-20T03:02:15;7.77;;;7.17;;
5612;SDS011;63463;53.586;9.928;2022-11-20T03:04:41;8.87;;;8.17;;
5612;SDS011;63463;53.586;9.928;2022-11-20T03:07:07;8.83;;;7.93;;
5612;SDS011;63463;53.586;9.928;2022-11-20T03:09:33;9.37;;;7.90;;
5612;SDS011;63463;53.586;9.928;2022-11-20T03:11:59;7.77;;;7.17;;
5612;SDS011;63463;53.586;9.928;2022-11-20T03:14:25;8.90;;;8.17;;
5612;SDS011;63463;53.586;9.928;2022-11-20T03:16:51;8.00;;;7.40;;
5612;SDS011;63463;53.586;9.928;2022-11-20T03:19:17;7.17;;;6.67;;
5612;SDS011;63463;53.586;9.928;2022-11-20T03:21:43;7.63;;;7.23;;
5612;SDS011;63463;53.586;9.928;2022-11-20T03:24:09;8.27;;;7.47;;
5612;SDS011;63463;53.586;9.928;2022-11-20T03:26:35;8.40;;;7.80;;
5612;SDS011;63463;53.586;9.928;2022-11-20T03:29:02;8.13;;;7.50;;
5612;SDS011;63463;53.586;9.928;2022-11-20T03:31:29;8.27;;;7.53;;
5612;SDS011;63463;53.586;9.928;2022-11-20T03:33:56;8.33;;;7.53;;
5612;SDS011;63463;53.586;9.928;2022-11-20T03:36:22;8.50;;;7.70;;
5612;SDS011;63463;53.586;9.928;2022-11-20T03:38:48;8.70;;;7.90;;
5612;SDS011;63463;53.586;9.928;2022-11-20T03:41:19;8.40;;;7.70;;
5612;SDS011;63463;53.586;9.928;2022-11-20T03:43:52;8.20;;;7.53;;
5612;SDS011;63463;53.586;9.928;2022-11-20T03:46:18;8.53;;;7.73;;
5612;SDS011;63463;53.586;9.928;2022-11-20T03:48:44;8.23;;;7.53;;
5612;SDS011;63463;53.586;9.928;2022-11-20T03:51:11;8.20;;;7.40;;
5612;SDS011;63463;53.586;9.928;2022-11-20T03:53:38;7.87;;;7.23;;
5612;SDS011;63463;53.586;9.928;2022-11-20T03:56:04;8.30;;;7.57;;
5612;SDS011;63463;53.586;9.928;2022-11-20T03:58:30;7.50;;;6.90;;
5612;SDS011;63463;53.586;9.928;2022-11-20T04:00:57;7.90;;;7.30;;
5612;SDS011;63463;53.586;9.928;2022-11-20T04:03:23;8.60;;;7.83;;
5612;SDS011;63463;53.586;9.928;2022-11-20T04:05:49;8.37;;;7.60;;
5612;SDS011;63463;53.586;9.928;2022-11-20T04:08:15;9.63;;;7.47;;
5612;SDS011;63463;53.586;9.928;2022-11-20T04:10:41;10.93;;;7.13;;
5612;SDS011;63463;53.586;9.928;2022-11-20T04:13:07;8.30;;;7.70;;
5612;SDS011;63463;53.586;9.928;2022-11-20T04:15:33;8.77;;;8.17;;
5612;SDS011;63463;53.586;9.928;2022-11-20T04:17:59;7.77;;;7.27;;
5612;SDS011;63463;53.586;9.928;2022-11-20T04:20:25;8.40;;;7.70;;
5612;SDS011;63463;53.586;9.928;2022-11-20T04:22:52;8.43;;;7.57;;
5612;SDS011;63463;53.586;9.928;2022-11-20T04:25:19;10.93;;;8.27;;
5612;SDS011;63463;53.586;9.928;2022-11-20T04:27:45;17.80;;;8.30;;
5612;SDS011;63463;53.586;9.928;2022-11-20T04:30:11;8.33;;;7.60;;
5612;SDS011;63463;53.586;9.928;2022-11-20T04:32:37;8.23;;;7.63;;
5612;SDS011;63463;53.586;9.928;2022-11-20T04:35:03;8.87;;;8.00;;
5612;SDS011;63463;53.586;9.928;2022-11-20T04:37:29;10.13;;;7.70;;
5612;SDS011;63463;53.586;9.928;2022-11-20T04:39:55;7.67;;;7.20;;
5612;SDS011;63463;53.586;9.928;2022-11-20T04:42:21;7.93;;;7.43;;
5612;SDS011;63463;53.586;9.928;2022-11-20T04:44:53;8.33;;;7.63;;
5612;SDS011;63463;53.586;9.928;2022-11-20T04:47:19;8.47;;;7.80;;
5612;SDS011;63463;53.586;9.928;2022-11-20T04:49:45;8.17;;;7.57;;
5612;SDS011;63463;53.586;9.928;2022-11-20T04:52:12;8.40;;;7.60;;
5612;SDS011;63463;53.586;9.928;2022-11-20T04:54:37;8.20;;;7.40;;
5612;SDS011;63463;53.586;9.928;2022-11-20T04:57:03;10.17;;;8.23;;
5612;SDS011;63463;53.586;9.928;2022-11-20T04:59:29;8.60;;;7.77;;
5612;SDS011;63463;53.586;9.928;2022-11-20T05:01:55;7.93;;;7.30;;
5612;SDS011;63463;53.586;9.928;2022-11-20T05:04:21;8.20;;;7.60;;
5612;SDS011;63463;53.586;9.928;2022-11-20T05:06:49;8.43;;;7.77;;
5612;SDS011;63463;53.586;9.928;2022-11-20T05:09:15;8.27;;;7.57;;
5612;SDS011;63463;53.586;9.928;2022-11-20T05:11:41;8.30;;;7.60;;
5612;SDS011;63463;53.586;9.928;2022-11-20T05:14:07;8.77;;;7.60;;
5612;SDS011;63463;53.586;9.928;2022-11-20T05:16:33;8.70;;;8.00;;
5612;SDS011;63463;53.586;9.928;2022-11-20T05:19:00;8.17;;;7.53;;
5612;SDS011;63463;53.586;9.928;2022-11-20T05:21:26;8.50;;;7.80;;
5612;SDS011;63463;53.586;9.928;2022-11-20T05:23:52;11.20;;;8.00;;
5612;SDS011;63463;53.586;9.928;2022-11-20T05:26:19;9.73;;;7.97;;
5612;SDS011;63463;53.586;9.928;2022-11-20T05:28:46;8.10;;;7.40;;
5612;SDS011;63463;53.586;9.928;2022-11-20T05:31:13;8.40;;;7.23;;
5612;SDS011;63463;53.586;9.928;2022-11-20T05:33:40;15.13;;;8.17;;
5612;SDS011;63463;53.586;9.928;2022-11-20T05:36:06;8.23;;;7.63;;
5612;SDS011;63463;53.586;9.928;2022-11-20T05:38:32;8.87;;;7.97;;
5612;SDS011;63463;53.586;9.928;2022-11-20T05:43:37;9.73;;;8.10;;
5612;SDS011;63463;53.586;9.928;2022-11-20T05:46:04;7.87;;;7.27;;
5612;SDS011;63463;53.586;9.928;2022-11-20T05:48:30;8.60;;;7.80;;
5612;SDS011;63463;53.586;9.928;2022-11-20T05:50:57;8.53;;;7.70;;
5612;SDS011;63463;53.586;9.928;2022-11-20T05:53:23;8.40;;;7.70;;
5612;SDS011;63463;53.586;9.928;2022-11-20T05:55:56;9.43;;;8.53;;
5612;SDS011;63463;53.586;9.928;2022-11-20T05:58:22;8.80;;;8.00;;
5612;SDS011;63463;53.586;9.928;2022-11-20T06:00:48;10.30;;;9.30;;
5612;SDS011;63463;53.586;9.928;2022-11-20T06:03:14;10.53;;;9.00;;
5612;SDS011;63463;53.586;9.928;2022-11-20T06:05:40;13.60;;;10.00;;
5612;SDS011;63463;53.586;9.928;2022-11-20T06:08:06;12.23;;;8.63;;
5612;SDS011;63463;53.586;9.928;2022-11-20T06:10:32;11.50;;;9.50;;
5612;SDS011;63463;53.586;9.928;2022-11-20T06:12:58;13.37;;;9.60;;
5612;SDS011;63463;53.586;9.928;2022-11-20T06:15:24;11.20;;;10.00;;
5612;SDS011;63463;53.586;9.928;2022-11-20T06:17:53;11.80;;;10.00;;
5612;SDS011;63463;53.586;9.928;2022-11-20T06:20:20;11.63;;;9.40;;
5612;SDS011;63463;53.586;9.928;2022-11-20T06:22:46;12.67;;;9.50;;
5612;SDS011;63463;53.586;9.928;2022-11-20T06:25:12;10.30;;;9.10;;
5612;SDS011;63463;53.586;9.928;2022-11-20T06:27:38;11.70;;;9.13;;
5612;SDS011;63463;53.586;9.928;2022-11-20T06:30:04;10.40;;;9.23;;
5612;SDS011;63463;53.586;9.928;2022-11-20T06:32:30;12.10;;;9.60;;
5612;SDS011;63463;53.586;9.928;2022-11-20T06:34:56;9.23;;;8.43;;
5612;SDS011;63463;53.586;9.928;2022-11-20T06:37:24;9.87;;;8.87;;
5612;SDS011;63463;53.586;9.928;2022-11-20T06:39:50;10.10;;;8.13;;
5612;SDS011;63463;53.586;9.928;2022-11-20T06:42:17;8.50;;;7.80;;
5612;SDS011;63463;53.586;9.928;2022-11-20T06:44:43;9.60;;;8.50;;
5612;SDS011;63463;53.586;9.928;2022-11-20T06:47:09;9.33;;;8.43;;
5612;SDS011;63463;53.586;9.928;2022-11-20T06:49:35;10.30;;;9.20;;
5612;SDS011;63463;53.586;9.928;2022-11-20T06:52:03;11.97;;;7.80;;
5612;SDS011;63463;53.586;9.928;2022-11-20T06:54:29;10.83;;;8.57;;
5612;SDS011;63463;53.586;9.928;2022-11-20T06:56:55;9.20;;;8.30;;
5612;SDS011;63463;53.586;9.928;2022-11-20T06:59:21;8.53;;;7.83;;
5612;SDS011;63463;53.586;9.928;2022-11-20T07:01:47;9.67;;;8.00;;
5612;SDS011;63463;53.586;9.928;2022-11-20T07:04:13;10.90;;;8.10;;
5612;SDS011;63463;53.586;9.928;2022-11-20T07:06:39;7.47;;;6.97;;
5612;SDS011;63463;53.586;9.928;2022-11-20T07:09:05;9.03;;;8.17;;
5612;SDS011;63463;53.586;9.928;2022-11-20T07:11:31;8.00;;;7.40;;
5612;SDS011;63463;53.586;9.928;2022-11-20T07:13:57;8.37;;;7.60;;
5612;SDS011;63463;53.586;9.928;2022-11-20T07:16:23;8.80;;;7.93;;
5612;SDS011;63463;53.586;9.928;2022-11-20T07:18:49;13.40;;;8.40;;
5612;SDS011;63463;53.586;9.928;2022-11-20T07:21:16;8.63;;;7.77;;
5612;SDS011;63463;53.586;9.928;2022-11-20T07:23:42;8.37;;;7.57;;
5612;SDS011;63463;53.586;9.928;2022-11-20T07:26:09;8.30;;;7.60;;
5612;SDS011;63463;53.586;9.928;2022-11-20T07:28:35;8.00;;;7.30;;
5612;SDS011;63463;53.586;9.928;2022-11-20T07:31:01;8.17;;;7.57;;
5612;SDS011;63463;53.586;9.928;2022-11-20T07:33:28;8.23;;;7.53;;
5612;SDS011;63463;53.586;9.928;2022-11-20T07:35:54;8.33;;;7.60;;
5612;SDS011;63463;53.586;9.928;2022-11-20T07:38:20;9.93;;;7.90;;
5612;SDS011;63463;53.586;9.928;2022-11-20T07:40:46;8.50;;;7.73;;
5612;SDS011;63463;53.586;9.928;2022-11-20T07:43:12;8.27;;;7.60;;
5612;SDS011;63463;53.586;9.928;2022-11-20T07:45:38;13.40;;;8.40;;
5612;SDS011;63463;53.586;9.928;2022-11-20T07:48:04;12.40;;;8.40;;
5612;SDS011;63463;53.586;9.928;2022-11-20T07:50:30;9.50;;;8.50;;
5612;SDS011;63463;53.586;9.928;2022-11-20T07:53:03;10.30;;;8.40;;
5612;SDS011;63463;53.586;9.928;2022-11-20T07:55:29;9.50;;;8.40;;
5612;SDS011;63463;53.586;9.928;2022-11-20T07:57:55;12.13;;;9.03;;
5612;SDS011;63463;53.586;9.928;2022-11-20T08:00:22;8.80;;;8.10;;
5612;SDS011;63463;53.586;9.928;2022-11-20T08:02:48;14.97;;;8.43;;
5612;SDS011;63463;53.586;9.928;2022-11-20T08:05:14;8.90;;;8.00;;
5612;SDS011;63463;53.586;9.928;2022-11-20T08:07:41;10.57;;;8.63;;
5612;SDS011;63463;53.586;9.928;2022-11-20T08:10:08;10.20;;;9.03;;
5612;SDS011;63463;53.586;9.928;2022-11-20T08:12:34;8.47;;;7.47;;
5612;SDS011;63463;53.586;9.928;2022-11-20T08:15:19;13.20;;;9.33;;
5612;SDS011;63463;53.586;9.928;2022-11-20T08:17:45;13.40;;;9.30;;
5612;SDS011;63463;53.586;9.928;2022-11-20T08:20:11;9.80;;;8.80;;
5612;SDS011;63463;53.586;9.928;2022-11-20T08:22:37;8.70;;;7.80;;
5612;SDS011;63463;53.586;9.928;2022-11-20T08:25:03;9.90;;;8.67;;
5612;SDS011;63463;53.586;9.928;2022-11-20T08:27:31;8.60;;;7.80;;
5612;SDS011;63463;53.586;9.928;2022-11-20T08:29:57;8.93;;;8.03;;
5612;SDS011;63463;53.586;9.928;2022-11-20T08:32:23;7.60;;;6.97;;
5612;SDS011;63463;53.586;9.928;2022-11-20T08:34:48;8.57;;;6.80;;
5612;SDS011;63463;53.586;9.928;2022-11-20T08:37:14;8.33;;;7.60;;
5612;SDS011;63463;53.586;9.928;2022-11-20T08:39:40;8.07;;;7.47;;
5612;SDS011;63463;53.586;9.928;2022-11-20T08:42:07;8.23;;;7.10;;
5612;SDS011;63463;53.586;9.928;2022-11-20T08:44:33;6.93;;;6.50;;
5612;SDS011;63463;53.586;9.928;2022-11-20T08:46:59;7.90;;;7.03;;
5612;SDS011;63463;53.586;9.928;2022-11-20T08:49:25;6.37;;;5.97;;
5612;SDS011;63463;53.586;9.928;2022-11-20T08:51:51;6.90;;;6.50;;
5612;SDS011;63463;53.586;9.928;2022-11-20T08:54:20;6.60;;;6.20;;
5612;SDS011;63463;53.586;9.928;2022-11-20T08:56:47;7.73;;;7.03;;
5612;SDS011;63463;53.586;9.928;2022-11-20T08:59:13;7.63;;;6.83;;
5612;SDS011;63463;53.586;9.928;2022-11-20T09:01:39;8.17;;;7.47;;
5612;SDS011;63463;53.586;9.928;2022-11-20T09:04:05;7.80;;;7.20;;
5612;SDS011;63463;53.586;9.928;2022-11-20T09:06:31;11.83;;;7.00;;
5612;SDS011;63463;53.586;9.928;2022-11-20T09:08:57;11.47;;;7.00;;
5612;SDS011;63463;53.586;9.928;2022-11-20T09:11:23;8.40;;;7.80;;
5612;SDS011;63463;53.586;9.928;2022-11-20T09:13:49;7.63;;;7.03;;
5612;SDS011;63463;53.586;9.928;2022-11-20T09:16:15;7.23;;;6.73;;
5612;SDS011;63463;53.586;9.928;2022-11-20T09:18:41;8.13;;;7.53;;
5612;SDS011;63463;53.586;9.928;2022-11-20T09:21:11;10.20;;;8.13;;
5612;SDS011;63463;53.586;9.928;2022-11-20T09:23:38;7.17;;;6.60;;
5612;SDS011;63463;53.586;9.928;2022-11-20T09:26:04;7.50;;;6.87;;
5612;SDS011;63463;53.586;9.928;2022-11-20T09:28:31;7.47;;;6.93;;
5612;SDS011;63463;53.586;9.928;2022-11-20T09:30:57;8.50;;;7.70;;
5612;SDS011;63463;53.586;9.928;2022-11-20T09:33:23;9.43;;;7.13;;
5612;SDS011;63463;53.586;9.928;2022-11-20T09:35:49;7.70;;;7.10;;
5612;SDS011;63463;53.586;9.928;2022-11-20T09:38:15;7.40;;;6.73;;
5612;SDS011;63463;53.586;9.928;2022-11-20T09:40:57;7.60;;;6.97;;
5612;SDS011;63463;53.586;9.928;2022-11-20T09:46:14;7.80;;;7.20;;
5612;SDS011;63463;53.586;9.928;2022-11-20T09:53:57;7.57;;;7.07;;
5612;SDS011;63463;53.586;9.928;2022-11-20T09:56:25;7.77;;;7.07;;
5612;SDS011;63463;53.586;9.928;2022-11-20T09:58:52;7.23;;;6.70;;
5612;SDS011;63463;53.586;9.928;2022-11-20T10:01:21;6.93;;;6.43;;
5612;SDS011;63463;53.586;9.928;2022-11-20T10:06:33;7.20;;;6.70;;
5612;SDS011;63463;53.586;9.928;2022-11-20T10:09:01;7.00;;;6.50;;
5612;SDS011;63463;53.586;9.928;2022-11-20T10:11:33;8.53;;;7.67;;
5612;SDS011;63463;53.586;9.928;2022-11-20T10:19:04;7.10;;;6.60;;
5612;SDS011;63463;53.586;9.928;2022-11-20T10:29:13;6.90;;;6.40;;
5612;SDS011;63463;53.586;9.928;2022-11-20T10:31:44;7.53;;;7.00;;
5612;SDS011;63463;53.586;9.928;2022-11-20T10:34:14;7.90;;;7.20;;
5612;SDS011;63463;53.586;9.928;2022-11-20T10:36:44;7.67;;;6.97;;
5612;SDS011;63463;53.586;9.928;2022-11-20T10:41:40;8.30;;;7.70;;
5612;SDS011;63463;53.586;9.928;2022-11-20T10:44:12;8.37;;;7.70;;
5612;SDS011;63463;53.586;9.928;2022-11-20T10:49:43;10.47;;;8.00;;
5612;SDS011;63463;53.586;9.928;2022-11-20T10:59:45;7.70;;;7.10;;
5612;SDS011;63463;53.586;9.928;2022-11-20T11:02:15;8.10;;;7.27;;
5612;SDS011;63463;53.586;9.928;2022-11-20T11:04:45;8.80;;;7.63;;
5612;SDS011;63463;53.586;9.928;2022-11-20T11:09:46;8.47;;;7.77;;
5612;SDS011;63463;53.586;9.928;2022-11-20T11:12:13;8.60;;;7.07;;
5612;SDS011;63463;53.586;9.928;2022-11-20T11:14:43;7.80;;;7.30;;
5612;SDS011;63463;53.586;9.928;2022-11-20T11:17:18;7.57;;;7.03;;
5612;SDS011;63463;53.586;9.928;2022-11-20T11:19:45;7.80;;;7.17;;
5612;SDS011;63463;53.586;9.928;2022-11-20T11:22:15;6.80;;;6.30;;
5612;SDS011;63463;53.586;9.928;2022-11-20T11:24:43;7.77;;;7.23;;
5612;SDS011;63463;53.586;9.928;2022-11-20T11:27:16;7.33;;;6.90;;
5612;SDS011;63463;53.586;9.928;2022-11-20T11:29:42;8.20;;;7.40;;
5612;SDS011;63463;53.586;9.928;2022-11-20T11:32:11;7.30;;;6.70;;
5612;SDS011;63463;53.586;9.928;2022-11-20T11:34:37;8.20;;;7.37;;
5612;SDS011;63463;53.586;9.928;2022-11-20T11:37:03;7.97;;;7.30;;
5612;SDS011;63463;53.586;9.928;2022-11-20T11:39:30;7.67;;;7.00;;
5612;SDS011;63463;53.586;9.928;2022-11-20T11:41:57;12.43;;;7.17;;
5612;SDS011;63463;53.586;9.928;2022-11-20T11:44:35;7.37;;;6.87;;
5612;SDS011;63463;53.586;9.928;2022-11-20T11:47:24;8.23;;;6.70;;
5612;SDS011;63463;53.586;9.928;2022-11-20T11:50:00;7.07;;;6.67;;
5612;SDS011;63463;53.586;9.928;2022-11-20T11:52:26;6.30;;;6.00;;
5612;SDS011;63463;53.586;9.928;2022-11-20T11:55:04;6.67;;;6.30;;
5612;SDS011;63463;53.586;9.928;2022-11-20T12:02:46;5.37;;;5.17;;
5612;SDS011;63463;53.586;9.928;2022-11-20T12:15:49;7.00;;;6.30;;
5612;SDS011;63463;53.586;9.928;2022-11-20T12:18:16;7.17;;;6.70;;
5612;SDS011;63463;53.586;9.928;2022-11-20T12:20:45;6.47;;;5.97;;
5612;SDS011;63463;53.586;9.928;2022-11-20T12:25:39;7.07;;;6.57;;
5612;SDS011;63463;53.586;9.928;2022-11-20T12:30:34;6.90;;;6.50;;
5612;SDS011;63463;53.586;9.928;2022-11-20T12:40:51;7.23;;;6.70;;
5612;SDS011;63463;53.586;9.928;2022-11-20T12:43:26;7.10;;;6.60;;
5612;SDS011;63463;53.586;9.928;2022-11-20T12:49:12;7.03;;;6.53;;
5612;SDS011;63463;53.586;9.928;2022-11-20T12:51:55;6.63;;;6.10;;
5612;SDS011;63463;53.586;9.928;2022-11-20T13:02:23;6.10;;;5.80;;
5612;SDS011;63463;53.586;9.928;2022-11-20T13:04:55;6.43;;;6.13;;
5612;SDS011;63463;53.586;9.928;2022-11-20T13:07:25;6.43;;;6.03;;
5612;SDS011;63463;53.586;9.928;2022-11-20T13:09:51;5.90;;;5.60;;
5612;SDS011;63463;53.586;9.928;2022-11-20T13:12:22;5.87;;;5.67;;
5612;SDS011;63463;53.586;9.928;2022-11-20T13:14:53;6.60;;;6.10;;
5612;SDS011;63463;53.586;9.928;2022-11-20T13:17:31;5.87;;;5.57;;
5612;SDS011;63463;53.586;9.928;2022-11-20T13:19:59;7.00;;;6.40;;
5612;SDS011;63463;53.586;9.928;2022-11-20T13:22:29;5.70;;;5.40;;
5612;SDS011;63463;53.586;9.928;2022-11-20T13:24:55;6.53;;;6.03;;
5612;SDS011;63463;53.586;9.928;2022-11-20T13:27:21;5.50;;;5.30;;
5612;SDS011;63463;53.586;9.928;2022-11-20T13:30:02;5.90;;;5.60;;
5612;SDS011;63463;53.586;9.928;2022-11-20T13:32:28;6.90;;;6.30;;
5612;SDS011;63463;53.586;9.928;2022-11-20T13:34:58;7.63;;;7.03;;
5612;SDS011;63463;53.586;9.928;2022-11-20T13:37:32;7.43;;;6.90;;
5612;SDS011;63463;53.586;9.928;2022-11-20T13:42:54;5.90;;;5.70;;
5612;SDS011;63463;53.586;9.928;2022-11-20T13:45:22;8.80;;;6.50;;
5612;SDS011;63463;53.586;9.928;2022-11-20T13:47:48;7.00;;;6.60;;
5612;SDS011;63463;53.586;9.928;2022-11-20T13:50:15;6.53;;;6.23;;
5612;SDS011;63463;53.586;9.928;2022-11-20T14:00:22;6.80;;;6.27;;
5612;SDS011;63463;53.586;9.928;2022-11-20T14:03:09;6.93;;;6.33;;
5612;SDS011;63463;53.586;9.928;2022-11-20T14:05:38;7.57;;;6.83;;
5612;SDS011;63463;53.586;9.928;2022-11-20T14:08:06;6.60;;;6.20;;
5612;SDS011;63463;53.586;9.928;2022-11-20T14:10:32;6.30;;;5.90;;
5612;SDS011;63463;53.586;9.928;2022-11-20T14:12:58;6.77;;;6.37;;
5612;SDS011;63463;53.586;9.928;2022-11-20T14:15:35;6.43;;;6.03;;
5612;SDS011;63463;53.586;9.928;2022-11-20T14:18:11;6.43;;;6.13;;
5612;SDS011;63463;53.586;9.928;2022-11-20T14:20:37;6.53;;;6.13;;
5612;SDS011;63463;53.586;9.928;2022-11-20T14:23:03;6.40;;;5.80;;
5612;SDS011;63463;53.586;9.928;2022-11-20T14:25:30;6.70;;;6.10;;
5612;SDS011;63463;53.586;9.928;2022-11-20T14:27:57;7.00;;;6.50;;
5612;SDS011;63463;53.586;9.928;2022-11-20T14:30:43;6.30;;;5.97;;
5612;SDS011;63463;53.586;9.928;2022-11-20T14:33:09;6.73;;;6.23;;
5612;SDS011;63463;53.586;9.928;2022-11-20T14:35:37;6.60;;;6.30;;
5612;SDS011;63463;53.586;9.928;2022-11-20T14:38:08;6.43;;;6.13;;
5612;SDS011;63463;53.586;9.928;2022-11-20T14:40:36;7.07;;;6.57;;
5612;SDS011;63463;53.586;9.928;2022-11-20T14:43:16;7.37;;;6.90;;
5612;SDS011;63463;53.586;9.928;2022-11-20T14:45:43;6.67;;;6.20;;
5612;SDS011;63463;53.586;9.928;2022-11-20T14:48:09;7.00;;;6.50;;
5612;SDS011;63463;53.586;9.928;2022-11-20T14:50:37;6.87;;;6.43;;
5612;SDS011;63463;53.586;9.928;2022-11-20T14:53:03;7.97;;;7.37;;
5612;SDS011;63463;53.586;9.928;2022-11-20T14:55:33;7.70;;;7.20;;
5612;SDS011;63463;53.586;9.928;2022-11-20T14:58:01;8.20;;;7.40;;
5612;SDS011;63463;53.586;9.928;2022-11-20T15:00:28;7.33;;;6.73;;
5612;SDS011;63463;53.586;9.928;2022-11-20T15:02:54;7.33;;;6.93;;
5612;SDS011;63463;53.586;9.928;2022-11-20T15:05:22;7.80;;;7.00;;
5612;SDS011;63463;53.586;9.928;2022-11-20T15:07:50;7.40;;;6.90;;
5612;SDS011;63463;53.586;9.928;2022-11-20T15:10:26;7.40;;;6.80;;
5612;SDS011;63463;53.586;9.928;2022-11-20T15:12:57;7.70;;;7.10;;
5612;SDS011;63463;53.586;9.928;2022-11-20T15:15:29;10.23;;;7.27;;
5612;SDS011;63463;53.586;9.928;2022-11-20T15:17:56;8.10;;;7.40;;
5612;SDS011;63463;53.586;9.928;2022-11-20T15:20:24;8.20;;;7.50;;
5612;SDS011;63463;53.586;9.928;2022-11-20T15:22:51;7.33;;;6.60;;
5612;SDS011;63463;53.586;9.928;2022-11-20T15:25:17;7.90;;;7.10;;
5612;SDS011;63463;53.586;9.928;2022-11-20T15:27:44;6.77;;;6.27;;
5612;SDS011;63463;53.586;9.928;2022-11-20T15:30:19;7.80;;;7.20;;
5612;SDS011;63463;53.586;9.928;2022-11-20T15:32:46;7.87;;;7.07;;
5612;SDS011;63463;53.586;9.928;2022-11-20T15:35:12;9.70;;;7.90;;
5612;SDS011;63463;53.586;9.928;2022-11-20T15:37:40;8.33;;;7.13;;
5612;SDS011;63463;53.586;9.928;2022-11-20T15:40:06;7.80;;;7.30;;
5612;SDS011;63463;53.586;9.928;2022-11-20T15:42:33;7.50;;;6.93;;
5612;SDS011;63463;53.586;9.928;2022-11-20T15:44:59;11.80;;;7.20;;
5612;SDS011;63463;53.586;9.928;2022-11-20T15:47:26;7.57;;;7.07;;
5612;SDS011;63463;53.586;9.928;2022-11-20T15:49:53;7.93;;;7.13;;
5612;SDS011;63463;53.586;9.928;2022-11-20T15:52:19;8.13;;;7.50;;
5612;SDS011;63463;53.586;9.928;2022-11-20T15:54:45;7.67;;;7.10;;
5612;SDS011;63463;53.586;9.928;2022-11-20T15:57:20;7.90;;;7.17;;
5612;SDS011;63463;53.586;9.928;2022-11-20T15:59:46;7.37;;;6.77;;
5612;SDS011;63463;53.586;9.928;2022-11-20T16:02:13;7.90;;;7.30;;
5612;SDS011;63463;53.586;9.928;2022-11-20T16:04:39;7.83;;;7.20;;
5612;SDS011;63463;53.586;9.928;2022-11-20T16:07:05;8.07;;;7.27;;
5612;SDS011;63463;53.586;9.928;2022-11-20T16:09:31;11.20;;;7.53;;
5612;SDS011;63463;53.586;9.928;2022-11-20T16:11:57;8.10;;;7.40;;
5612;SDS011;63463;53.586;9.928;2022-11-20T16:14:26;8.10;;;7.40;;
5612;SDS011;63463;53.586;9.928;2022-11-20T16:17:12;7.87;;;7.27;;
5612;SDS011;63463;53.586;9.928;2022-11-20T16:19:38;8.10;;;7.47;;
5612;SDS011;63463;53.586;9.928;2022-11-20T16:22:04;9.57;;;8.67;;
5612;SDS011;63463;53.586;9.928;2022-11-20T16:24:30;9.20;;;8.30;;
5612;SDS011;63463;53.586;9.928;2022-11-20T16:26:56;8.57;;;7.73;;
5612;SDS011;63463;53.586;9.928;2022-11-20T16:29:22;8.20;;;7.50;;
5612;SDS011;63463;53.586;9.928;2022-11-20T16:31:49;8.07;;;7.43;;
5612;SDS011;63463;53.586;9.928;2022-11-20T16:34:15;8.40;;;7.70;;
5612;SDS011;63463;53.586;9.928;2022-11-20T16:36:42;7.83;;;7.23;;
5612;SDS011;63463;53.586;9.928;2022-11-20T16:39:09;8.73;;;7.40;;
5612;SDS011;63463;53.586;9.928;2022-11-20T16:41:35;9.10;;;8.20;;
5612;SDS011;63463;53.586;9.928;2022-11-20T16:44:02;8.30;;;7.53;;
5612;SDS011;63463;53.586;9.928;2022-11-20T16:46:31;9.70;;;8.80;;